Time;durP1;ratioP1;P1;durP2;ratioP2;P2;SDS_P1;SDS_P2;PMS_P1;PMS_P2;Temp;Humidity;BMP_temperature;BMP_pressure;BME280_temperature;BME280_humidity;BME280_pressure;Samples;Min_cycle;Max_cycle;Signal;HPM_P1;HPM_P2
2022/06/13 00:01:39;;;;;;;3.83;3.25;;;;;;;;;;5065169;28;20025;-71
2022/06/13 01:39:08;;;;;;;5.15;3.40;;;;;;;;;;4539944;28;20403;-71
2022/06/13 01:41:40;;;;;;;3.38;3.05;;;;;;;;;;5047171;28;20460;-71
2022/06/13 01:44:09;;;;;;;3.80;2.92;;;;;;;;;;5062110;28;20024;-71
2022/06/13 01:46:35;;;;;;;3.70;3.00;;;;;;;;;;5047237;28;20024;-71
2022/06/13 01:49:01;;;;;;;3.00;2.70;;;;;;;;;;5061297;28;20594;-71
2022/06/13 01:51:38;;;;;;;5.97;3.78;;;;;;;;;;5056899;28;20033;-71
2022/06/13 01:54:13;;;;;;;3.85;3.45;;;;;;;;;;5057343;28;20033;-71
2022/06/13 01:56:52;;;;;;;3.42;3.13;;;;;;;;;;5052527;28;20029;-71
2022/06/13 01:59:38;;;;;;;6.47;3.45;;;;;;;;;;5059174;28;20037;-71
2022/06/13 02:02:11;;;;;;;4.10;3.17;;;;;;;;;;5057249;28;20935;-71
2022/06/13 02:04:59;;;;;;;4.22;3.35;;;;;;;;;;5056374;28;20029;-71
2022/06/13 02:07:27;;;;;;;4.10;3.20;;;;;;;;;;5063113;28;20655;-74
2022/06/13 02:25:15;;;;;;;4.90;2.53;;;;;;;;;;5052943;28;20102;-72
2022/06/13 02:27:42;;;;;;;3.90;3.58;;;;;;;;;;5063073;28;20039;-71
2022/06/13 02:30:11;;;;;;;3.67;3.30;;;;;;;;;;5063883;28;20564;-70
2022/06/13 02:32:49;;;;;;;3.50;3.13;;;;;;;;;;5063776;28;20106;-72
2022/06/13 02:35:22;;;;;;;3.30;3.00;;;;;;;;;;5060124;28;20020;-72
2022/06/13 02:37:51;;;;;;;3.33;3.00;;;;;;;;;;5062361;28;20052;-72
2022/06/13 02:40:32;;;;;;;8.07;3.63;;;;;;;;;;5055897;28;20474;-72
2022/06/13 02:43:02;;;;;;;3.22;2.92;;;;;;;;;;5057036;28;20031;-71
2022/06/13 02:45:40;;;;;;;3.55;3.08;;;;;;;;;;5057469;28;20455;-71
2022/06/13 02:48:12;;;;;;;5.45;3.60;;;;;;;;;;5059931;28;20032;-70
2022/06/13 02:50:51;;;;;;;10.27;3.50;;;;;;;;;;5061187;28;20025;-70
2022/06/13 02:53:20;;;;;;;4.05;3.03;;;;;;;;;;5061636;28;20503;-70
2022/06/13 02:55:53;;;;;;;3.42;3.13;;;;;;;;;;5063719;28;20586;-71
2022/06/13 02:58:34;;;;;;;3.67;2.97;;;;;;;;;;5042561;28;20033;-70
2022/06/13 03:01:15;;;;;;;3.78;3.10;;;;;;;;;;5055623;28;20025;-70
2022/06/13 03:03:45;;;;;;;3.72;3.00;;;;;;;;;;5056909;28;20927;-71
2022/06/13 03:06:21;;;;;;;5.40;3.00;;;;;;;;;;5060825;28;20140;-70
2022/06/13 03:08:56;;;;;;;4.20;3.50;;;;;;;;;;5057633;28;20040;-70
2022/06/13 03:11:25;;;;;;;3.67;3.05;;;;;;;;;;5060107;28;20068;-70
2022/06/13 03:13:52;;;;;;;4.18;3.10;;;;;;;;;;5062569;28;20028;-71
2022/06/13 03:16:24;;;;;;;4.25;3.17;;;;;;;;;;5057802;28;20039;-70
2022/06/13 03:18:54;;;;;;;3.90;3.50;;;;;;;;;;5058351;28;20032;-71
2022/06/13 03:21:34;;;;;;;3.70;3.30;;;;;;;;;;5057311;28;20575;-70
2022/06/13 03:24:20;;;;;;;4.82;3.13;;;;;;;;;;5056597;28;20025;-70
2022/06/13 03:26:50;;;;;;;4.07;3.67;;;;;;;;;;5063564;28;20071;-70
2022/06/13 03:29:16;;;;;;;3.95;3.50;;;;;;;;;;5064856;28;20103;-71
2022/06/13 03:31:45;;;;;;;5.22;3.55;;;;;;;;;;5063592;28;20036;-70
2022/06/13 03:34:17;;;;;;;5.10;3.58;;;;;;;;;;5063194;28;20021;-70
2022/06/13 03:36:56;;;;;;;4.10;3.33;;;;;;;;;;5057435;28;20024;-72
2022/06/13 03:39:28;;;;;;;5.10;3.20;;;;;;;;;;5062196;28;20373;-71
2022/06/13 03:41:56;;;;;;;4.07;3.53;;;;;;;;;;5061589;28;20082;-71
2022/06/13 03:44:22;;;;;;;3.88;3.55;;;;;;;;;;5062096;28;20487;-71
2022/06/13 03:46:52;;;;;;;4.47;3.47;;;;;;;;;;5059495;28;20033;-71
2022/06/13 03:49:21;;;;;;;4.78;3.72;;;;;;;;;;5060382;28;20036;-71
2022/06/13 03:51:49;;;;;;;4.55;3.03;;;;;;;;;;5059166;28;20044;-71
2022/06/13 03:54:31;;;;;;;3.45;3.10;;;;;;;;;;5060268;28;20033;-71
2022/06/13 03:57:00;;;;;;;4.85;3.47;;;;;;;;;;5059807;28;20039;-71
2022/06/13 03:59:32;;;;;;;4.57;3.60;;;;;;;;;;5060127;28;20089;-71
2022/06/13 04:02:01;;;;;;;4.55;3.05;;;;;;;;;;5060049;28;20036;-73
2022/06/13 04:04:32;;;;;;;4.28;3.80;;;;;;;;;;5056666;28;20194;-70
2022/06/13 04:07:00;;;;;;;5.40;3.90;;;;;;;;;;5059898;28;20044;-71
2022/06/13 04:09:28;;;;;;;6.20;4.18;;;;;;;;;;5054830;28;20047;-71
2022/06/13 04:12:03;;;;;;;13.18;6.70;;;;;;;;;;5059649;28;20048;-71
2022/06/13 04:14:48;;;;;;;9.43;5.30;;;;;;;;;;5058427;28;20033;-71
2022/06/13 04:17:23;;;;;;;9.18;4.80;;;;;;;;;;5054528;28;20029;-72
2022/06/13 04:19:49;;;;;;;6.30;4.38;;;;;;;;;;5059295;28;20457;-71
2022/06/13 04:22:15;;;;;;;6.63;4.05;;;;;;;;;;5059479;28;20028;-72
2022/06/13 04:24:50;;;;;;;5.82;4.53;;;;;;;;;;5057634;28;20025;-72
2022/06/13 04:27:34;;;;;;;7.80;3.70;;;;;;;;;;5058898;28;20025;-71
2022/06/13 04:30:29;;;;;;;7.82;4.10;;;;;;;;;;5057609;28;20491;-71
2022/06/13 04:33:30;;;;;;;8.68;4.72;;;;;;;;;;5043315;28;20049;-71
2022/06/13 04:35:57;;;;;;;5.95;3.92;;;;;;;;;;4987244;28;20038;-71
2022/06/13 04:38:23;;;;;;;11.32;4.78;;;;;;;;;;5045369;28;20641;-71
2022/06/13 04:40:53;;;;;;;5.10;4.57;;;;;;;;;;5059361;28;20036;-72
2022/06/13 04:43:23;;;;;;;7.20;4.75;;;;;;;;;;5057717;28;20028;-73
2022/06/13 04:45:53;;;;;;;8.60;4.85;;;;;;;;;;5059114;28;20049;-71
2022/06/13 04:48:20;;;;;;;7.82;4.90;;;;;;;;;;5051811;28;20027;-72
2022/06/13 04:50:48;;;;;;;7.22;5.13;;;;;;;;;;5059012;28;20603;-70
2022/06/13 04:53:34;;;;;;;5.32;4.82;;;;;;;;;;5059211;28;20547;-71
2022/06/13 04:56:00;;;;;;;10.27;4.75;;;;;;;;;;5054581;28;20067;-73
2022/06/13 04:58:28;;;;;;;6.80;4.40;;;;;;;;;;5057216;28;20024;-73
2022/06/13 05:01:12;;;;;;;7.75;4.35;;;;;;;;;;5055028;28;20098;-70
2022/06/13 05:03:42;;;;;;;5.20;4.47;;;;;;;;;;5051265;28;20066;-73
2022/06/13 05:06:15;;;;;;;5.93;4.43;;;;;;;;;;5057757;28;20040;-70
2022/06/13 05:08:43;;;;;;;9.00;4.72;;;;;;;;;;5055984;28;20032;-70
2022/06/13 05:11:15;;;;;;;5.47;4.45;;;;;;;;;;5058749;28;20040;-71
2022/06/13 05:13:41;;;;;;;8.80;4.45;;;;;;;;;;5058157;28;20040;-70
2022/06/13 05:16:15;;;;;;;6.30;4.35;;;;;;;;;;5056971;28;20024;-72
2022/06/13 05:18:50;;;;;;;4.95;4.15;;;;;;;;;;5049443;28;20495;-70
2022/06/13 05:21:23;;;;;;;6.53;5.03;;;;;;;;;;5057433;28;20033;-72
2022/06/13 05:24:06;;;;;;;7.03;4.20;;;;;;;;;;5057537;28;20024;-72
2022/06/13 05:26:32;;;;;;;7.75;4.63;;;;;;;;;;5057511;28;20484;-71
2022/06/13 05:29:00;;;;;;;23.13;5.63;;;;;;;;;;5058605;28;20464;-74
2022/06/13 05:31:26;;;;;;;9.90;4.72;;;;;;;;;;5059409;28;20059;-73
2022/06/13 05:33:53;;;;;;;8.73;4.22;;;;;;;;;;5057796;28;20023;-74
2022/06/13 05:36:21;;;;;;;6.57;4.30;;;;;;;;;;5058533;28;20020;-72
2022/06/13 05:39:07;;;;;;;8.90;4.20;;;;;;;;;;5059428;28;20044;-74
2022/06/13 05:41:33;;;;;;;7.22;5.05;;;;;;;;;;5058102;28;20032;-73
2022/06/13 05:43:59;;;;;;;5.03;4.40;;;;;;;;;;5058928;28;20756;-72
2022/06/13 05:46:32;;;;;;;5.85;3.92;;;;;;;;;;5058158;28;20033;-71
2022/06/13 05:48:59;;;;;;;7.20;4.45;;;;;;;;;;5058649;28;20399;-72
2022/06/13 05:51:25;;;;;;;5.32;4.45;;;;;;;;;;5056609;28;20678;-74
2022/06/13 05:53:52;;;;;;;5.15;4.35;;;;;;;;;;5058514;28;20031;-70
2022/06/13 05:56:19;;;;;;;7.97;4.50;;;;;;;;;;5052322;28;20349;-73
2022/06/13 05:58:46;;;;;;;5.72;4.07;;;;;;;;;;5053931;28;20487;-72
2022/06/13 06:01:14;;;;;;;7.22;4.55;;;;;;;;;;5057059;28;20070;-70
2022/06/13 06:03:41;;;;;;;10.75;4.50;;;;;;;;;;5056360;28;20060;-71
2022/06/13 06:06:10;;;;;;;4.72;4.20;;;;;;;;;;5045316;28;20032;-73
2022/06/13 06:08:37;;;;;;;8.63;4.22;;;;;;;;;;5060052;28;20543;-71
2022/06/13 06:11:03;;;;;;;10.70;4.15;;;;;;;;;;5060809;28;20384;-71
2022/06/13 06:13:30;;;;;;;7.75;3.90;;;;;;;;;;5043143;28;20024;-70
2022/06/13 06:15:58;;;;;;;6.40;4.22;;;;;;;;;;5059088;28;20491;-71
2022/06/13 06:18:25;;;;;;;5.20;4.38;;;;;;;;;;5061337;28;20067;-71
2022/06/13 06:20:51;;;;;;;5.55;4.03;;;;;;;;;;5061083;28;20021;-72
2022/06/13 06:23:18;;;;;;;4.75;4.32;;;;;;;;;;5060383;28;20519;-70
2022/06/13 06:25:44;;;;;;;5.32;4.45;;;;;;;;;;5054788;28;20025;-71
2022/06/13 06:28:15;;;;;;;5.30;4.10;;;;;;;;;;5061450;28;20033;-72
2022/06/13 06:30:41;;;;;;;6.32;4.82;;;;;;;;;;5062520;28;20587;-71
2022/06/13 06:33:07;;;;;;;11.68;7.72;;;;;;;;;;5044764;28;20041;-73
2022/06/13 06:35:34;;;;;;;7.95;4.72;;;;;;;;;;5058777;28;20469;-73
2022/06/13 06:38:01;;;;;;;5.97;4.60;;;;;;;;;;5059888;28;20063;-71
2022/06/13 06:40:27;;;;;;;6.10;4.65;;;;;;;;;;5058978;28;20039;-70
2022/06/13 06:42:54;;;;;;;4.90;4.40;;;;;;;;;;5041965;28;20027;-72
2022/06/13 06:45:21;;;;;;;8.15;5.10;;;;;;;;;;5060189;28;20095;-74
2022/06/13 06:47:47;;;;;;;7.82;5.05;;;;;;;;;;5063032;28;20131;-75
2022/06/13 06:50:14;;;;;;;10.32;4.85;;;;;;;;;;5062411;28;20381;-74
2022/06/13 06:52:41;;;;;;;9.73;4.57;;;;;;;;;;5063608;28;20118;-69
2022/06/13 07:00:39;;;;;;;7.78;4.35;;;;;;;;;;5060532;28;20090;-72
2022/06/13 07:03:05;;;;;;;5.82;4.40;;;;;;;;;;5063737;28;20040;-75
2022/06/13 07:05:31;;;;;;;5.55;4.72;;;;;;;;;;5063174;28;20601;-72
2022/06/13 07:07:57;;;;;;;5.20;4.70;;;;;;;;;;5061004;28;20037;-73
2022/06/13 07:10:23;;;;;;;6.50;4.43;;;;;;;;;;5061911;28;20025;-72
2022/06/13 07:12:50;;;;;;;7.63;4.72;;;;;;;;;;5061203;28;20098;-71
2022/06/13 07:15:16;;;;;;;8.57;4.97;;;;;;;;;;5060232;28;20020;-73
2022/06/13 07:17:42;;;;;;;5.95;4.65;;;;;;;;;;5059115;28;20040;-73
2022/06/13 07:20:09;;;;;;;5.95;4.82;;;;;;;;;;5062836;28;20581;-76
2022/06/13 07:22:35;;;;;;;5.28;4.30;;;;;;;;;;5061701;28;20020;-71
2022/06/13 07:25:02;;;;;;;8.98;4.80;;;;;;;;;;5043794;28;20020;-69
2022/06/13 07:27:28;;;;;;;6.85;4.57;;;;;;;;;;5062692;28;20074;-72
2022/06/13 07:29:54;;;;;;;6.28;4.65;;;;;;;;;;5063051;28;20094;-75
2022/06/13 07:32:21;;;;;;;7.13;4.40;;;;;;;;;;5062773;28;20116;-72
2022/06/13 07:34:49;;;;;;;8.35;4.50;;;;;;;;;;5061058;28;20099;-72
2022/06/13 07:40:06;;;;;;;6.93;4.35;;;;;;;;;;5058659;28;20051;-72
2022/06/13 07:42:35;;;;;;;7.35;4.68;;;;;;;;;;5058990;28;20112;-72
2022/06/13 07:45:01;;;;;;;5.78;4.03;;;;;;;;;;5062164;28;20070;-72
2022/06/13 07:47:31;;;;;;;5.55;4.90;;;;;;;;;;5055136;28;20033;-73
2022/06/13 07:49:57;;;;;;;9.38;4.47;;;;;;;;;;5063366;28;20020;-72
2022/06/13 07:52:23;;;;;;;7.60;4.28;;;;;;;;;;5061082;28;20403;-72
2022/06/13 07:54:49;;;;;;;6.10;4.57;;;;;;;;;;5063416;28;20024;-73
2022/06/13 07:57:16;;;;;;;4.72;4.30;;;;;;;;;;5062707;28;20458;-73
2022/06/13 07:59:42;;;;;;;5.95;3.90;;;;;;;;;;5045587;28;20693;-72
2022/06/13 08:02:14;;;;;;;5.13;4.28;;;;;;;;;;5062870;28;20036;-72
2022/06/13 08:04:40;;;;;;;5.57;4.13;;;;;;;;;;5062532;28;20031;-72
2022/06/13 08:07:07;;;;;;;5.28;4.30;;;;;;;;;;5059981;28;20541;-72
2022/06/13 08:09:33;;;;;;;6.47;4.45;;;;;;;;;;5058186;28;20514;-72
2022/06/13 08:11:59;;;;;;;6.15;4.18;;;;;;;;;;5062688;28;20567;-71
2022/06/13 08:14:26;;;;;;;8.73;4.55;;;;;;;;;;5062606;28;20021;-71
2022/06/13 08:16:53;;;;;;;8.65;3.92;;;;;;;;;;5061627;28;20039;-76
2022/06/13 08:19:19;;;;;;;4.40;4.00;;;;;;;;;;5060492;28;20029;-72
2022/06/13 08:21:45;;;;;;;8.23;4.53;;;;;;;;;;5055091;28;20029;-72
2022/06/13 08:24:11;;;;;;;4.72;4.10;;;;;;;;;;5059449;28;20090;-73
2022/06/13 08:26:37;;;;;;;5.68;4.05;;;;;;;;;;5058903;28;20032;-72
2022/06/13 08:29:04;;;;;;;4.25;3.85;;;;;;;;;;5058511;28;20051;-73
2022/06/13 08:31:31;;;;;;;5.40;3.80;;;;;;;;;;5056831;28;20570;-74
2022/06/13 08:33:57;;;;;;;5.68;3.65;;;;;;;;;;5058556;28;20035;-72
2022/06/13 08:36:23;;;;;;;6.60;3.60;;;;;;;;;;5058007;28;20036;-72
2022/06/13 08:38:49;;;;;;;5.90;3.80;;;;;;;;;;5058299;28;20114;-75
2022/06/13 08:41:24;;;;;;;5.75;3.85;;;;;;;;;;5057600;28;20070;-73
2022/06/13 08:44:11;;;;;;;5.00;3.90;;;;;;;;;;5058668;28;20020;-72
2022/06/13 08:46:49;;;;;;;4.65;3.92;;;;;;;;;;5059408;28;20032;-72
2022/06/13 08:49:34;;;;;;;4.95;4.00;;;;;;;;;;5059723;28;20020;-72
2022/06/13 08:52:08;;;;;;;6.40;3.83;;;;;;;;;;5056625;28;20052;-72
2022/06/13 08:54:35;;;;;;;7.25;3.72;;;;;;;;;;5058783;28;20033;-72
2022/06/13 08:57:02;;;;;;;5.90;4.10;;;;;;;;;;5058801;28;20452;-73
2022/06/13 08:59:34;;;;;;;4.55;4.15;;;;;;;;;;5058757;28;20029;-74
2022/06/13 09:02:18;;;;;;;4.65;3.80;;;;;;;;;;5050057;28;20029;-73
2022/06/13 09:04:52;;;;;;;6.22;3.90;;;;;;;;;;5057421;28;20115;-75
2022/06/13 09:07:23;;;;;;;7.15;3.60;;;;;;;;;;5058039;28;20472;-72
2022/06/13 09:09:52;;;;;;;4.10;3.20;;;;;;;;;;5058548;28;20036;-72
2022/06/13 09:12:24;;;;;;;6.55;3.72;;;;;;;;;;5057161;28;20487;-72
2022/06/13 09:14:50;;;;;;;6.43;3.80;;;;;;;;;;5059119;28;20036;-77
2022/06/13 09:17:37;;;;;;;4.53;3.50;;;;;;;;;;5056599;28;20388;-75
2022/06/13 09:20:04;;;;;;;6.70;3.67;;;;;;;;;;5057152;28;20353;-74
2022/06/13 09:22:30;;;;;;;5.18;3.67;;;;;;;;;;5058315;28;20369;-77
2022/06/13 09:25:11;;;;;;;3.83;3.40;;;;;;;;;;5058920;28;20029;-71
2022/06/13 09:27:41;;;;;;;5.30;3.67;;;;;;;;;;5058540;28;20060;-72
2022/06/13 09:30:10;;;;;;;7.63;3.72;;;;;;;;;;5059228;28;20077;-72
2022/06/13 09:32:49;;;;;;;6.28;3.42;;;;;;;;;;5056639;28;20043;-73
2022/06/13 09:35:16;;;;;;;6.00;3.53;;;;;;;;;;5057972;28;20028;-74
2022/06/13 09:37:42;;;;;;;5.53;3.63;;;;;;;;;;5058275;28;20876;-75
2022/06/13 09:40:08;;;;;;;5.30;3.58;;;;;;;;;;5058562;28;20036;-72
2022/06/13 09:42:37;;;;;;;6.07;3.50;;;;;;;;;;5053992;28;20085;-73
2022/06/13 09:45:07;;;;;;;4.53;3.38;;;;;;;;;;5055664;28;20032;-74
2022/06/13 09:47:39;;;;;;;5.95;3.50;;;;;;;;;;5053463;28;20032;-74
2022/06/13 09:50:08;;;;;;;4.18;3.45;;;;;;;;;;5057171;28;20037;-74
2022/06/13 09:52:43;;;;;;;7.93;3.95;;;;;;;;;;5057966;28;20563;-74
2022/06/13 09:55:16;;;;;;;15.20;4.63;;;;;;;;;;5058535;28;20029;-74
2022/06/13 09:57:54;;;;;;;4.13;3.50;;;;;;;;;;5057325;28;20031;-74
2022/06/13 10:00:27;;;;;;;4.65;3.22;;;;;;;;;;5056243;28;20025;-74
2022/06/13 10:03:16;;;;;;;8.07;4.00;;;;;;;;;;5057604;28;20025;-74
2022/06/13 10:05:47;;;;;;;8.98;3.38;;;;;;;;;;5033224;28;20037;-76
2022/06/13 10:08:16;;;;;;;6.28;3.25;;;;;;;;;;5056367;28;20024;-73
2022/06/13 10:10:46;;;;;;;5.38;3.30;;;;;;;;;;5058053;28;20127;-73
2022/06/13 10:13:28;;;;;;;6.13;3.17;;;;;;;;;;5056949;28;20029;-72
2022/06/13 10:15:54;;;;;;;5.72;3.25;;;;;;;;;;5060634;28;20333;-71
2022/06/13 10:18:49;;;;;;;6.95;3.40;;;;;;;;;;5041461;28;20559;-70
2022/06/13 10:21:24;;;;;;;5.70;3.53;;;;;;;;;;5032191;28;20032;-71
2022/06/13 10:24:06;;;;;;;6.20;3.15;;;;;;;;;;5062313;28;20838;-71
2022/06/13 10:26:38;;;;;;;11.07;4.40;;;;;;;;;;5051774;28;20024;-70
2022/06/13 10:29:23;;;;;;;5.32;3.60;;;;;;;;;;5064289;28;20052;-73
2022/06/13 10:31:52;;;;;;;5.95;3.35;;;;;;;;;;5060408;28;20048;-71
2022/06/13 10:34:25;;;;;;;3.95;3.47;;;;;;;;;;5057634;28;20492;-72
2022/06/13 10:36:57;;;;;;;6.55;3.47;;;;;;;;;;5044595;28;20029;-70
2022/06/13 10:39:25;;;;;;;5.55;3.55;;;;;;;;;;5063916;28;20041;-71
2022/06/13 10:41:58;;;;;;;7.18;3.58;;;;;;;;;;5061865;28;20050;-70
2022/06/13 10:44:24;;;;;;;4.93;3.67;;;;;;;;;;5064049;28;20012;-69
2022/06/13 10:46:51;;;;;;;9.30;3.88;;;;;;;;;;5061751;28;20465;-70
2022/06/13 10:49:23;;;;;;;6.72;3.38;;;;;;;;;;5061209;28;20940;-71
2022/06/13 10:51:49;;;;;;;5.00;3.88;;;;;;;;;;5063386;28;20123;-71
2022/06/13 10:54:19;;;;;;;3.83;3.00;;;;;;;;;;5063759;28;20021;-71
2022/06/13 10:56:47;;;;;;;5.43;3.25;;;;;;;;;;5062472;28;20119;-72
2022/06/13 10:59:27;;;;;;;4.57;3.30;;;;;;;;;;5048664;28;20062;-70
2022/06/13 11:02:01;;;;;;;4.82;3.28;;;;;;;;;;5063872;28;20024;-71
2022/06/13 11:04:28;;;;;;;5.72;2.83;;;;;;;;;;5043436;28;20016;-71
2022/06/13 11:06:58;;;;;;;4.45;3.03;;;;;;;;;;5058278;28;20024;-71
2022/06/13 11:09:36;;;;;;;5.40;3.47;;;;;;;;;;5038389;28;20112;-73
2022/06/13 11:12:04;;;;;;;5.25;3.25;;;;;;;;;;5053274;28;20345;-71
2022/06/13 11:14:35;;;;;;;4.18;3.55;;;;;;;;;;5060447;28;20036;-71
2022/06/13 11:22:38;;;;;;;6.65;3.65;;;;;;;;;;5057772;28;20660;-72
2022/06/13 11:25:16;;;;;;;5.72;2.90;;;;;;;;;;5060916;28;20025;-74
2022/06/13 11:27:42;;;;;;;4.40;3.20;;;;;;;;;;5060173;28;20132;-72
2022/06/13 11:30:17;;;;;;;5.35;2.83;;;;;;;;;;5054366;28;20677;-74
2022/06/13 11:32:56;;;;;;;5.85;3.17;;;;;;;;;;5059409;28;20117;-74
2022/06/13 11:35:28;;;;;;;3.20;2.90;;;;;;;;;;5058784;28;20035;-72
2022/06/13 11:37:55;;;;;;;4.85;3.13;;;;;;;;;;5040784;28;20885;-72
2022/06/13 11:40:26;;;;;;;5.55;3.03;;;;;;;;;;5020872;28;20028;-72
2022/06/13 11:42:53;;;;;;;4.43;2.90;;;;;;;;;;5020402;28;20025;-73
2022/06/13 11:45:23;;;;;;;8.88;3.05;;;;;;;;;;5020864;28;20029;-72
2022/06/13 11:47:50;;;;;;;5.70;3.00;;;;;;;;;;5030464;28;20035;-70
2022/06/13 11:50:19;;;;;;;3.28;2.70;;;;;;;;;;5013618;28;20663;-71
2022/06/13 11:55:31;;;;;;;6.38;3.28;;;;;;;;;;5026146;28;20360;-71
2022/06/13 11:58:02;;;;;;;6.57;2.90;;;;;;;;;;5022660;28;20096;-72
2022/06/13 12:00:30;;;;;;;3.20;2.90;;;;;;;;;;5022910;28;20017;-71
2022/06/13 12:03:18;;;;;;;4.70;3.00;;;;;;;;;;5022090;28;20045;-71
2022/06/13 12:05:45;;;;;;;5.72;2.97;;;;;;;;;;5036393;28;20608;-71
2022/06/13 12:08:17;;;;;;;4.45;2.72;;;;;;;;;;5036055;28;20400;-72
2022/06/13 12:10:53;;;;;;;5.43;2.95;;;;;;;;;;5036803;28;20017;-71
2022/06/13 12:13:22;;;;;;;5.57;3.20;;;;;;;;;;5032100;28;20051;-72
2022/06/13 12:15:54;;;;;;;3.28;2.58;;;;;;;;;;5021477;28;20242;-72
2022/06/13 12:18:33;;;;;;;3.13;2.80;;;;;;;;;;5020477;28;20036;-72
2022/06/13 12:21:06;;;;;;;2.85;2.50;;;;;;;;;;5031374;28;20474;-71
2022/06/13 12:23:43;;;;;;;3.75;2.70;;;;;;;;;;5022574;28;20040;-76
2022/06/13 12:26:12;;;;;;;3.13;2.60;;;;;;;;;;5024506;28;20037;-71
2022/06/13 12:28:44;;;;;;;3.15;2.58;;;;;;;;;;5026235;28;20493;-71
2022/06/13 12:31:31;;;;;;;2.75;2.53;;;;;;;;;;5023117;28;20106;-71
2022/06/13 12:33:57;;;;;;;4.18;2.67;;;;;;;;;;4982492;28;20493;-71
2022/06/13 12:36:23;;;;;;;3.42;2.38;;;;;;;;;;5028515;28;20044;-72
2022/06/13 12:38:52;;;;;;;3.00;2.63;;;;;;;;;;5045964;28;20060;-71
2022/06/13 12:41:37;;;;;;;6.85;2.75;;;;;;;;;;5061387;28;20434;-71
2022/06/13 12:44:22;;;;;;;3.65;2.40;;;;;;;;;;5052198;28;20040;-72
2022/06/13 12:46:48;;;;;;;6.20;2.50;;;;;;;;;;5061458;28;20144;-71
2022/06/13 12:49:17;;;;;;;6.57;2.55;;;;;;;;;;5062058;28;20399;-71
2022/06/13 12:51:49;;;;;;;5.03;2.50;;;;;;;;;;5060842;28;20159;-71
2022/06/13 12:54:22;;;;;;;3.92;2.50;;;;;;;;;;5061367;28;20040;-71
2022/06/13 12:56:51;;;;;;;3.33;2.13;;;;;;;;;;5061330;28;20021;-71
2022/06/13 12:59:36;;;;;;;3.13;2.20;;;;;;;;;;5062079;28;20405;-71
2022/06/13 13:02:13;;;;;;;3.85;2.30;;;;;;;;;;5059997;28;20017;-71
2022/06/13 13:04:41;;;;;;;3.83;2.05;;;;;;;;;;5061704;28;20102;-71
2022/06/13 13:07:07;;;;;;;4.40;2.63;;;;;;;;;;5061101;28;20032;-70
2022/06/13 13:09:46;;;;;;;3.45;2.20;;;;;;;;;;5061321;28;20021;-71
2022/06/13 13:12:30;;;;;;;3.47;1.98;;;;;;;;;;5059700;28;20028;-71
2022/06/13 13:15:12;;;;;;;3.72;2.55;;;;;;;;;;5043350;28;20031;-70
2022/06/13 13:17:38;;;;;;;;;;;;;;;;;;5061464;28;20069;-71
2022/06/13 13:20:08;;;;;;;3.83;2.20;;;;;;;;;;5061482;28;19908;-72
2022/06/13 13:22:45;;;;;;;3.03;1.98;;;;;;;;;;5059702;28;20028;-73
2022/06/13 13:25:25;;;;;;;6.88;2.17;;;;;;;;;;5060972;28;20020;-72
2022/06/13 13:27:57;;;;;;;6.35;2.47;;;;;;;;;;5060681;28;20020;-74
2022/06/13 13:30:27;;;;;;;3.38;2.10;;;;;;;;;;5059777;28;20070;-72
2022/06/13 13:32:59;;;;;;;6.57;2.17;;;;;;;;;;5055687;28;20064;-74
2022/06/13 13:35:29;;;;;;;4.35;1.95;;;;;;;;;;5054225;28;20051;-73
2022/06/13 13:38:01;;;;;;;6.25;2.00;;;;;;;;;;5057792;28;20052;-72
2022/06/13 13:40:39;;;;;;;4.07;2.03;;;;;;;;;;5057320;28;20055;-73
2022/06/13 13:43:27;;;;;;;5.78;2.33;;;;;;;;;;5058175;28;20077;-72
2022/06/13 13:46:05;;;;;;;3.97;2.20;;;;;;;;;;5058394;28;20073;-72
2022/06/13 13:48:46;;;;;;;4.55;1.80;;;;;;;;;;5060628;28;20407;-73
2022/06/13 13:51:18;;;;;;;4.40;2.05;;;;;;;;;;5057486;28;20024;-74
2022/06/13 13:53:47;;;;;;;3.05;1.80;;;;;;;;;;5059498;28;20035;-72
2022/06/13 13:56:18;;;;;;;3.75;2.08;;;;;;;;;;5063318;28;20158;-72
2022/06/13 13:58:45;;;;;;;7.05;2.13;;;;;;;;;;5062998;28;20502;-72
2022/06/13 14:01:20;;;;;;;3.63;2.47;;;;;;;;;;5064629;28;20107;-72
2022/06/13 14:04:02;;;;;;;4.50;1.80;;;;;;;;;;5062997;28;20028;-72
2022/06/13 14:06:28;;;;;;;7.90;2.08;;;;;;;;;;5060989;28;20025;-73
2022/06/13 14:08:55;;;;;;;3.75;2.15;;;;;;;;;;5063472;28;20032;-72
2022/06/13 14:11:21;;;;;;;4.47;1.80;;;;;;;;;;5062825;28;20025;-72
2022/06/13 14:13:48;;;;;;;4.85;2.10;;;;;;;;;;5063742;28;20036;-72
2022/06/13 14:16:24;;;;;;;3.50;1.95;;;;;;;;;;5063038;28;20025;-72
2022/06/13 14:18:52;;;;;;;4.50;2.50;;;;;;;;;;5058552;28;20521;-72
2022/06/13 14:21:22;;;;;;;4.95;2.30;;;;;;;;;;5062560;28;20028;-73
2022/06/13 14:23:50;;;;;;;10.13;2.28;;;;;;;;;;5060443;28;20028;-72
2022/06/13 14:26:32;;;;;;;5.63;2.15;;;;;;;;;;5062659;28;20044;-72
2022/06/13 14:29:06;;;;;;;3.63;2.20;;;;;;;;;;5061008;28;20021;-73
2022/06/13 14:31:52;;;;;;;5.03;2.42;;;;;;;;;;5063305;28;20515;-72
2022/06/13 14:37:23;;;;;;;4.05;2.28;;;;;;;;;;5061234;28;20047;-73
2022/06/13 14:39:54;;;;;;;3.45;2.20;;;;;;;;;;5062395;28;20792;-72
2022/06/13 14:42:22;;;;;;;5.03;2.30;;;;;;;;;;5061478;28;20016;-72
2022/06/13 14:44:51;;;;;;;4.05;2.20;;;;;;;;;;5061674;28;20043;-72
2022/06/13 14:47:23;;;;;;;5.18;2.53;;;;;;;;;;5062760;28;20048;-73
2022/06/13 14:49:49;;;;;;;2.97;2.08;;;;;;;;;;5062604;28;20035;-72
2022/06/13 14:52:21;;;;;;;4.28;2.40;;;;;;;;;;5062175;28;20041;-72
2022/06/13 14:54:47;;;;;;;3.60;2.15;;;;;;;;;;5062633;28;20024;-72
2022/06/13 14:57:28;;;;;;;4.50;2.20;;;;;;;;;;5060271;28;20082;-71
2022/06/13 15:00:13;;;;;;;2.97;2.25;;;;;;;;;;5063633;28;20146;-72
2022/06/13 15:02:57;;;;;;;4.72;2.47;;;;;;;;;;5050331;28;20020;-70
2022/06/13 15:05:43;;;;;;;3.35;2.30;;;;;;;;;;5060109;28;20119;-71
2022/06/13 15:08:19;;;;;;;6.68;2.40;;;;;;;;;;5058397;28;20399;-71
2022/06/13 15:10:54;;;;;;;4.35;2.55;;;;;;;;;;5059422;28;20035;-71
2022/06/13 15:13:25;;;;;;;3.25;2.10;;;;;;;;;;5059703;28;20557;-71
2022/06/13 15:15:56;;;;;;;6.03;2.38;;;;;;;;;;5061091;28;20028;-71
2022/06/13 15:18:24;;;;;;;3.42;2.10;;;;;;;;;;5062457;28;20028;-78
2022/06/13 15:20:51;;;;;;;6.68;2.50;;;;;;;;;;5062146;28;20028;-71
2022/06/13 15:23:18;;;;;;;3.45;2.30;;;;;;;;;;5059645;28;20028;-71
2022/06/13 15:25:46;;;;;;;6.20;2.35;;;;;;;;;;5062584;28;20100;-71
2022/06/13 15:28:14;;;;;;;8.85;2.58;;;;;;;;;;5063268;28;20016;-74
2022/06/13 15:30:42;;;;;;;4.25;2.20;;;;;;;;;;5060997;28;20036;-71
2022/06/13 15:33:22;;;;;;;4.57;2.20;;;;;;;;;;5061646;28;20380;-71
2022/06/13 15:35:55;;;;;;;4.78;2.30;;;;;;;;;;5059750;28;20122;-70
2022/06/13 15:38:30;;;;;;;5.22;2.50;;;;;;;;;;5049208;28;20032;-70
2022/06/13 15:41:10;;;;;;;6.85;2.28;;;;;;;;;;5063210;28;20089;-71
2022/06/13 15:43:45;;;;;;;7.65;3.30;;;;;;;;;;5050466;28;20035;-71
2022/06/13 15:46:30;;;;;;;9.20;3.63;;;;;;;;;;5043143;28;20025;-71
2022/06/13 15:48:58;;;;;;;9.15;3.47;;;;;;;;;;5061584;28;20085;-71
2022/06/13 15:51:26;;;;;;;9.98;4.10;;;;;;;;;;5062533;28;20063;-71
2022/06/13 15:53:53;;;;;;;7.93;5.35;;;;;;;;;;5063168;28;20023;-71
2022/06/13 15:56:37;;;;;;;13.93;8.23;;;;;;;;;;5062522;28;20488;-71
2022/06/13 15:59:09;;;;;;;16.83;10.35;;;;;;;;;;5060854;28;20020;-71
2022/06/13 16:01:36;;;;;;;15.68;9.88;;;;;;;;;;5062487;28;20156;-70
2022/06/13 16:04:03;;;;;;;13.20;7.93;;;;;;;;;;5062690;28;20019;-70
2022/06/13 16:06:44;;;;;;;9.52;6.18;;;;;;;;;;5062630;28;20607;-71
2022/06/13 16:09:15;;;;;;;11.05;6.00;;;;;;;;;;5060236;28;20024;-70
2022/06/13 16:11:42;;;;;;;9.43;4.85;;;;;;;;;;5063257;28;20029;-71
2022/06/13 16:14:09;;;;;;;8.55;4.10;;;;;;;;;;5058998;28;20031;-71
2022/06/13 16:16:35;;;;;;;7.82;3.70;;;;;;;;;;5061877;28;20052;-70
2022/06/13 16:19:18;;;;;;;6.55;3.15;;;;;;;;;;5062627;28;20031;-71
2022/06/13 16:21:44;;;;;;;9.25;3.40;;;;;;;;;;5061629;28;20029;-71
2022/06/13 16:24:15;;;;;;;9.50;3.25;;;;;;;;;;5060316;28;20025;-71
2022/06/13 16:26:42;;;;;;;8.73;3.00;;;;;;;;;;5060341;28;20048;-71
2022/06/13 16:29:08;;;;;;;8.40;3.22;;;;;;;;;;5060927;28;20036;-71
2022/06/13 16:31:37;;;;;;;8.60;2.63;;;;;;;;;;5061726;28;20055;-70
2022/06/13 16:34:05;;;;;;;5.45;2.75;;;;;;;;;;5061242;28;20032;-71
2022/06/13 16:36:37;;;;;;;9.50;3.00;;;;;;;;;;5060424;28;20036;-71
2022/06/13 16:39:08;;;;;;;15.18;4.25;;;;;;;;;;5059740;28;20101;-71
2022/06/13 16:41:42;;;;;;;12.33;3.67;;;;;;;;;;5059423;28;20029;-71
2022/06/13 16:44:10;;;;;;;9.45;3.70;;;;;;;;;;5061982;28;20246;-71
2022/06/13 16:46:44;;;;;;;11.27;3.38;;;;;;;;;;5059909;28;20028;-71
2022/06/13 16:49:13;;;;;;;10.85;3.63;;;;;;;;;;5049753;28;20368;-71
2022/06/13 16:51:44;;;;;;;7.97;3.53;;;;;;;;;;5061316;28;20527;-71
2022/06/13 16:54:13;;;;;;;9.88;2.65;;;;;;;;;;5043901;28;20036;-71
2022/06/13 16:56:41;;;;;;;10.68;2.85;;;;;;;;;;5054736;28;20025;-74
2022/06/13 16:59:08;;;;;;;7.70;2.78;;;;;;;;;;5057156;28;20048;-75
2022/06/13 17:01:43;;;;;;;8.20;3.08;;;;;;;;;;5052724;28;20454;-74
2022/06/13 17:04:11;;;;;;;7.88;3.10;;;;;;;;;;5054284;28;20392;-76
2022/06/13 17:06:40;;;;;;;7.03;2.75;;;;;;;;;;5060766;28;20021;-72
2022/06/13 17:09:12;;;;;;;10.15;2.78;;;;;;;;;;5059033;28;20031;-71
2022/06/13 17:11:50;;;;;;;6.88;2.83;;;;;;;;;;5059827;28;20024;-72
2022/06/13 17:14:17;;;;;;;8.70;3.65;;;;;;;;;;5061343;28;20025;-71
2022/06/13 17:16:43;;;;;;;4.47;2.55;;;;;;;;;;5043378;28;20040;-71
2022/06/13 17:19:09;;;;;;;7.60;2.92;;;;;;;;;;5060940;28;20036;-71